Time;durP1;ratioP1;P1;durP2;ratioP2;P2;SDS_P1;SDS_P2;PMS_P1;PMS_P2;Temp;Humidity;BMP_temperature;BMP_pressure;BME280_temperature;BME280_humidity;BME280_pressure;Samples;Min_cycle;Max_cycle;Signal;HPM_P1;HPM_P2
2020/12/22 00:02:11;;;;;;;5.43;2.60;;;;;;;13.12;87.81;99205.81;4412855;32;20084;-71
2020/12/22 00:04:37;;;;;;;6.00;3.00;;;;;;;13.12;88.61;99215.06;4412066;32;20103;-72
2020/12/22 00:07:03;;;;;;;4.62;2.30;;;;;;;13.04;87.69;99221.63;4412303;32;20112;-71
2020/12/22 00:09:28;;;;;;;5.68;2.33;;;;;;;13.01;88.23;99234.69;4410972;32;20407;-72
2020/12/22 00:11:54;;;;;;;8.07;2.08;;;;;;;12.99;89.06;99234.41;4412435;32;20092;-72
2020/12/22 00:14:20;;;;;;;9.85;2.40;;;;;;;12.97;89.77;99248.19;4408434;32;20542;-71
2020/12/22 00:16:45;;;;;;;3.90;2.20;;;;;;;12.87;93.31;99249.59;4411525;32;20029;-71
2020/12/22 00:19:11;;;;;;;6.00;2.10;;;;;;;12.78;92.46;99249.72;4407914;32;20423;-72
2020/12/22 00:21:37;;;;;;;7.50;2.28;;;;;;;12.63;94.10;99259.44;4408880;32;20098;-70
2020/12/22 00:24:03;;;;;;;10.48;2.10;;;;;;;12.57;97.22;99265.00;4408504;32;20073;-71
2020/12/22 00:26:28;;;;;;;6.60;2.22;;;;;;;12.55;97.88;99267.53;4414362;32;20109;-72
2020/12/22 00:28:54;;;;;;;4.78;2.35;;;;;;;12.50;98.21;99273.88;4408950;32;20378;-72
2020/12/22 00:31:20;;;;;;;14.07;2.30;;;;;;;12.40;98.77;99275.25;4409501;32;20089;-70
2020/12/22 00:33:46;;;;;;;10.35;2.70;;;;;;;12.36;98.39;99277.47;4425511;27;20139;-76
2020/12/22 00:36:11;;;;;;;5.82;1.87;;;;;;;12.36;99.02;99282.34;4414495;32;20098;-76
2020/12/22 00:38:37;;;;;;;2.97;1.87;;;;;;;12.39;99.52;99287.00;4413740;32;20037;-75
2020/12/22 00:41:03;;;;;;;4.50;2.00;;;;;;;12.36;98.52;99297.19;4416929;32;20093;-75
2020/12/22 00:43:29;;;;;;;4.40;1.90;;;;;;;12.34;98.32;99296.94;4415846;32;20046;-76
2020/12/22 00:45:55;;;;;;;2.42;1.58;;;;;;;12.34;97.28;99313.06;4415480;32;20034;-74
2020/12/22 00:48:20;;;;;;;2.47;1.30;;;;;;;12.30;96.94;99304.78;4413645;32;20097;-74
2020/12/22 00:50:46;;;;;;;6.87;1.30;;;;;;;12.32;97.52;99319.19;4416241;32;20479;-74
2020/12/22 00:53:11;;;;;;;3.95;1.15;;;;;;;12.28;96.26;99321.44;4415469;32;20065;-76
2020/12/22 00:55:37;;;;;;;3.33;1.27;;;;;;;12.28;96.18;99327.06;4416260;32;20034;-76
2020/12/22 00:58:03;;;;;;;4.18;1.17;;;;;;;12.28;96.14;99332.72;4415395;32;21199;-74
2020/12/22 01:00:29;;;;;;;2.45;1.37;;;;;;;12.29;96.30;99337.09;4413406;32;20045;-76
2020/12/22 01:02:55;;;;;;;4.50;1.40;;;;;;;12.26;95.84;99338.03;4416168;32;20081;-76
2020/12/22 01:05:21;;;;;;;2.35;1.40;;;;;;;12.29;95.93;99351.19;4416523;32;20083;-76
2020/12/22 01:07:48;;;;;;;3.72;1.42;;;;;;;11.93;92.46;99348.66;4409230;32;20042;-76
2020/12/22 01:10:14;;;;;;;1.83;0.90;;;;;;;11.66;92.61;99351.69;4398706;32;20147;-74
2020/12/22 01:12:43;;;;;;;1.10;0.88;;;;;;;11.30;91.54;99340.59;4415933;32;20422;-76
2020/12/22 01:15:09;;;;;;;2.50;1.02;;;;;;;11.35;92.55;99354.03;4416022;32;20533;-74
2020/12/22 01:17:34;;;;;;;2.03;1.23;;;;;;;11.45;93.96;99355.53;4415779;32;20135;-73
2020/12/22 01:20:00;;;;;;;2.40;1.40;;;;;;;11.31;91.92;99362.63;4414662;32;20366;-74
2020/12/22 01:22:26;;;;;;;2.12;1.70;;;;;;;11.22;90.75;99361.88;4416489;32;20062;-74
2020/12/22 01:24:52;;;;;;;2.45;1.90;;;;;;;11.11;89.62;99367.25;4415380;32;20744;-73
2020/12/22 01:27:17;;;;;;;3.33;2.20;;;;;;;11.23;91.19;99374.72;4414932;32;20101;-75
2020/12/22 01:29:44;;;;;;;3.30;2.53;;;;;;;11.23;90.64;99378.31;4412425;32;20066;-74
2020/12/22 01:32:09;;;;;;;4.32;2.80;;;;;;;11.22;90.26;99390.84;4414736;32;20038;-76
2020/12/22 01:34:35;;;;;;;4.18;2.40;;;;;;;11.18;88.83;99398.69;4415543;32;20115;-75
2020/12/22 01:37:01;;;;;;;3.22;2.33;;;;;;;11.01;87.21;99397.47;4415105;32;20081;-74
2020/12/22 01:39:27;;;;;;;4.32;2.50;;;;;;;11.03;87.88;99417.50;4413431;32;20049;-75
2020/12/22 01:41:52;;;;;;;5.05;2.40;;;;;;;11.07;87.53;99415.28;4414295;32;20132;-75
2020/12/22 01:44:18;;;;;;;3.00;2.28;;;;;;;10.99;87.00;99428.16;4416182;32;20049;-76
2020/12/22 01:46:47;;;;;;;3.00;2.35;;;;;;;10.94;87.08;99433.59;4413148;32;20035;-75
2020/12/22 01:49:17;;;;;;;3.05;1.95;;;;;;;10.98;87.59;99445.50;4412889;32;20469;-75
2020/12/22 01:51:44;;;;;;;3.78;2.55;;;;;;;10.97;86.99;99455.19;4414135;32;20496;-73
2020/12/22 01:54:10;;;;;;;3.95;2.80;;;;;;;10.98;87.87;99468.03;4414898;32;20038;-74
2020/12/22 01:56:37;;;;;;;3.90;2.70;;;;;;;10.94;88.66;99473.00;4414498;32;20037;-75
2020/12/22 01:59:03;;;;;;;4.70;2.90;;;;;;;11.01;88.74;99475.50;4410391;32;20153;-74
2020/12/22 02:01:31;;;;;;;4.18;2.97;;;;;;;11.10;88.27;99481.91;4414233;32;20495;-76
2020/12/22 02:03:59;;;;;;;4.22;2.70;;;;;;;11.12;87.98;99485.03;4416961;32;20097;-75
2020/12/22 02:06:25;;;;;;;4.47;3.20;;;;;;;11.10;86.48;99483.94;4414347;32;20122;-75
2020/12/22 02:08:50;;;;;;;4.97;3.12;;;;;;;11.16;87.43;99485.66;4411028;32;20091;-74
2020/12/22 02:11:33;;;;;;;4.95;3.22;;;;;;;11.14;87.35;99493.78;4414483;32;20034;-76
2020/12/22 02:14:00;;;;;;;6.20;3.40;;;;;;;11.21;87.65;99492.69;4415043;32;20046;-75
2020/12/22 02:16:44;;;;;;;6.95;4.20;;;;;;;11.19;87.21;99500.81;4413299;32;20091;-75
2020/12/22 02:19:10;;;;;;;6.07;3.65;;;;;;;11.12;87.03;99501.12;4411608;32;20260;-74
2020/12/22 02:21:36;;;;;;;5.50;3.53;;;;;;;11.12;87.11;99501.94;4413758;32;20049;-76
2020/12/22 02:24:01;;;;;;;5.55;3.65;;;;;;;11.13;88.04;99511.13;4415639;32;20092;-73
2020/12/22 02:26:27;;;;;;;8.18;4.43;;;;;;;11.12;88.26;99527.28;4414531;32;20147;-74
2020/12/22 02:28:54;;;;;;;6.20;4.00;;;;;;;11.10;87.97;99529.75;4412628;32;20085;-74
2020/12/22 02:31:24;;;;;;;6.03;4.07;;;;;;;11.10;87.95;99540.22;4413073;32;21421;-75
2020/12/22 02:33:50;;;;;;;7.07;4.03;;;;;;;11.09;87.48;99535.87;4413605;32;20091;-74
2020/12/22 02:36:16;;;;;;;7.37;4.10;;;;;;;11.09;88.02;99531.03;4412118;32;20111;-75
2020/12/22 02:38:42;;;;;;;5.57;4.12;;;;;;;11.13;87.98;99539.28;4411328;32;20033;-74
2020/12/22 02:41:09;;;;;;;5.95;3.78;;;;;;;11.14;87.65;99546.50;4413612;32;20418;-73
2020/12/22 02:43:35;;;;;;;6.87;3.92;;;;;;;11.10;86.54;99559.94;4414165;32;20076;-75
2020/12/22 02:46:01;;;;;;;5.68;3.50;;;;;;;11.07;87.03;99567.31;4413800;32;20097;-76
2020/12/22 02:48:27;;;;;;;3.90;2.50;;;;;;;10.96;86.43;99567.00;4411726;32;20050;-74
2020/12/22 02:50:53;;;;;;;4.18;2.53;;;;;;;10.75;82.94;99570.75;4413959;32;20126;-75
2020/12/22 02:53:18;;;;;;;3.40;2.50;;;;;;;10.70;83.37;99579.00;4416873;32;20054;-75
2020/12/22 02:55:44;;;;;;;3.92;2.83;;;;;;;10.70;85.12;99588.25;4416969;32;20444;-75
2020/12/22 02:58:10;;;;;;;4.57;3.00;;;;;;;10.75;86.38;99587.63;4416020;32;20056;-73
2020/12/22 03:00:37;;;;;;;3.28;2.12;;;;;;;10.73;86.15;99589.31;4414605;32;20638;-75
2020/12/22 03:03:03;;;;;;;4.40;2.28;;;;;;;10.50;82.64;99595.56;4415409;32;20088;-74
2020/12/22 03:05:29;;;;;;;4.55;2.90;;;;;;;10.41;82.83;99596.31;4417692;32;20646;-75
2020/12/22 03:07:54;;;;;;;3.10;2.22;;;;;;;10.43;84.87;99596.63;4417546;32;20677;-75
2020/12/22 03:10:20;;;;;;;3.05;2.10;;;;;;;10.38;85.04;99599.28;4414678;32;20428;-75
2020/12/22 03:12:47;;;;;;;4.15;2.53;;;;;;;10.37;85.14;99614.59;4416454;32;20109;-74
2020/12/22 03:15:13;;;;;;;3.87;2.70;;;;;;;10.43;85.64;99623.97;4414792;32;20073;-74
2020/12/22 03:17:40;;;;;;;3.22;2.30;;;;;;;10.39;83.96;99628.94;4416829;32;20073;-74
2020/12/22 03:20:08;;;;;;;5.05;2.45;;;;;;;10.35;83.43;99640.38;4415857;32;20076;-75
2020/12/22 03:22:35;;;;;;;5.15;3.00;;;;;;;10.40;83.85;99645.38;4416598;32;21167;-75
2020/12/22 03:25:02;;;;;;;4.10;3.03;;;;;;;10.43;85.58;99640.84;4416912;32;20089;-73
2020/12/22 03:27:28;;;;;;;4.85;3.08;;;;;;;10.43;85.73;99650.06;4403150;32;20457;-74
2020/12/22 03:29:54;;;;;;;4.60;3.53;;;;;;;10.41;85.91;99648.97;4414395;32;20035;-73
2020/12/22 03:32:19;;;;;;;5.82;3.83;;;;;;;10.38;86.20;99661.12;4416359;32;20128;-74
2020/12/22 03:34:45;;;;;;;7.85;3.62;;;;;;;10.25;84.71;99666.09;4414903;32;20050;-74
2020/12/22 03:37:11;;;;;;;6.65;4.62;;;;;;;10.24;85.07;99670.94;4414448;32;20535;-74
2020/12/22 03:39:37;;;;;;;7.57;4.07;;;;;;;10.12;84.16;99682.28;4414094;32;20394;-74
2020/12/22 03:42:02;;;;;;;6.00;4.35;;;;;;;10.10;85.43;99686.31;4416808;32;20030;-75
2020/12/22 03:44:28;;;;;;;5.93;4.30;;;;;;;10.16;86.20;99691.34;4416676;32;20107;-74
2020/12/22 03:46:53;;;;;;;5.97;4.47;;;;;;;10.09;85.76;99690.38;4415396;32;20061;-74
2020/12/22 03:49:19;;;;;;;8.32;4.78;;;;;;;10.06;85.73;99693.28;4414619;32;20080;-73
2020/12/22 03:51:45;;;;;;;9.30;5.55;;;;;;;10.01;85.55;99702.34;4417062;32;20025;-74
2020/12/22 03:54:12;;;;;;;8.85;5.37;;;;;;;9.97;84.77;99707.28;4417250;32;20037;-74
2020/12/22 03:56:39;;;;;;;9.88;5.87;;;;;;;9.98;85.27;99725.75;4413439;32;20133;-73
2020/12/22 03:59:05;;;;;;;9.70;5.68;;;;;;;9.91;82.61;99723.97;4409269;32;20364;-74
2020/12/22 04:01:31;;;;;;;9.20;5.43;;;;;;;9.79;82.97;99724.81;4413378;32;20355;-76
2020/12/22 04:03:57;;;;;;;10.30;6.10;;;;;;;9.78;82.61;99734.50;4416210;32;20073;-74
2020/12/22 04:06:23;;;;;;;9.38;5.72;;;;;;;9.69;81.12;99731.63;4416495;32;20401;-73
2020/12/22 04:08:52;;;;;;;11.00;6.45;;;;;;;9.74;82.15;99747.91;4415249;32;20748;-74
2020/12/22 04:11:20;;;;;;;11.23;6.15;;;;;;;9.71;82.27;99751.63;4415459;32;20372;-74
2020/12/22 04:13:45;;;;;;;11.00;6.60;;;;;;;9.76;83.07;99758.69;4416756;32;20073;-75
2020/12/22 04:16:11;;;;;;;9.95;6.55;;;;;;;9.66;81.43;99769.03;4415346;32;20082;-74
2020/12/22 04:18:37;;;;;;;9.18;5.82;;;;;;;9.68;81.15;99774.22;4416313;32;20053;-74
2020/12/22 04:21:03;;;;;;;11.63;7.00;;;;;;;9.65;80.82;99775.91;4416235;32;21190;-75
2020/12/22 04:23:28;;;;;;;12.00;6.78;;;;;;;9.64;81.92;99782.75;4415850;32;20074;-74
2020/12/22 04:25:54;;;;;;;11.48;6.03;;;;;;;9.68;82.45;99777.03;4414266;32;20125;-74
2020/12/22 04:28:20;;;;;;;10.18;6.22;;;;;;;9.56;81.59;99781.44;4414591;32;20038;-76
2020/12/22 04:30:46;;;;;;;10.35;6.18;;;;;;;9.51;80.37;99798.09;4414453;32;20279;-74
2020/12/22 04:33:12;;;;;;;10.38;5.97;;;;;;;9.43;79.77;99794.75;4414257;32;20383;-74
2020/12/22 04:35:39;;;;;;;12.63;6.57;;;;;;;9.33;79.66;99803.53;4415502;32;20551;-75
2020/12/22 04:38:06;;;;;;;10.52;5.97;;;;;;;9.38;81.37;99802.94;4415326;32;20113;-75
2020/12/22 04:40:33;;;;;;;10.90;6.18;;;;;;;9.37;81.70;99813.41;4414518;32;20370;-75
2020/12/22 04:43:00;;;;;;;14.43;6.93;;;;;;;9.34;81.39;99811.50;4400096;32;20108;-75
2020/12/22 04:45:27;;;;;;;13.45;6.22;;;;;;;9.38;82.30;99825.41;4415548;32;20049;-75
2020/12/22 04:47:54;;;;;;;11.30;6.32;;;;;;;9.37;82.89;99827.47;4415860;32;20643;-75
2020/12/22 04:50:20;;;;;;;12.02;6.70;;;;;;;9.26;82.11;99829.81;4413372;32;20498;-75
2020/12/22 04:52:47;;;;;;;10.18;6.22;;;;;;;9.29;82.63;99834.53;4414272;32;20301;-75
2020/12/22 04:55:13;;;;;;;8.98;5.70;;;;;;;9.32;83.09;99833.63;4416393;32;20026;-75
2020/12/22 04:57:47;;;;;;;10.60;6.10;;;;;;;9.22;83.03;99834.78;4416479;32;20049;-75
2020/12/22 05:00:13;;;;;;;11.70;6.45;;;;;;;9.20;83.02;99831.63;4411962;32;20085;-76
2020/12/22 05:02:42;;;;;;;10.38;5.53;;;;;;;9.06;81.14;99832.09;4416085;32;20029;-75
2020/12/22 05:05:09;;;;;;;8.32;5.05;;;;;;;9.11;81.91;99839.94;4416172;32;20048;-75
2020/12/22 05:07:34;;;;;;;9.40;5.78;;;;;;;9.08;81.97;99838.03;4414115;32;20060;-75
2020/12/22 05:10:15;;;;;;;9.15;5.18;;;;;;;9.05;80.94;99846.59;4413361;32;20092;-75
2020/12/22 05:12:42;;;;;;;7.95;5.15;;;;;;;9.00;80.01;99842.31;4414632;32;20043;-75
2020/12/22 05:15:09;;;;;;;9.30;5.43;;;;;;;8.91;79.89;99847.03;4411343;32;20022;-75
2020/12/22 05:17:43;;;;;;;9.07;5.43;;;;;;;8.99;81.35;99837.16;4415868;32;20070;-75
2020/12/22 05:20:13;;;;;;;9.85;5.87;;;;;;;8.87;79.68;99847.13;4411333;32;20042;-75
2020/12/22 05:22:40;;;;;;;9.98;5.85;;;;;;;8.81;80.93;99848.91;4413115;32;20042;-75
2020/12/22 05:25:06;;;;;;;10.75;5.87;;;;;;;8.80;81.70;99863.41;4412576;32;20038;-75
2020/12/22 05:27:32;;;;;;;11.10;6.35;;;;;;;8.79;82.15;99857.00;4414179;32;20069;-75
2020/12/22 05:30:00;;;;;;;9.80;5.80;;;;;;;8.79;82.60;99867.44;4413801;32;20034;-75
2020/12/22 05:32:27;;;;;;;9.70;5.22;;;;;;;8.73;82.05;99872.81;4413550;32;20095;-75
2020/12/22 05:34:54;;;;;;;10.10;5.90;;;;;;;8.66;81.80;99887.06;4410541;32;20058;-76
2020/12/22 05:37:24;;;;;;;9.73;6.05;;;;;;;8.63;82.74;99884.34;4411879;32;20151;-76
2020/12/22 05:39:50;;;;;;;15.80;6.10;;;;;;;8.61;83.04;99898.81;4409828;32;20078;-76
2020/12/22 05:42:17;;;;;;;9.93;5.55;;;;;;;8.54;83.43;99892.63;4411873;32;20083;-76
2020/12/22 05:44:47;;;;;;;8.05;5.10;;;;;;;8.45;81.29;99909.31;4409608;32;20170;-76
2020/12/22 05:47:15;;;;;;;14.57;7.45;;;;;;;8.47;82.53;99918.09;4413678;32;20087;-76
2020/12/22 05:49:57;;;;;;;12.95;7.07;;;;;;;8.43;82.88;99912.56;4413161;32;20046;-76
2020/12/22 05:52:26;;;;;;;10.82;6.65;;;;;;;8.36;82.28;99924.00;4413870;32;20108;-76
2020/12/22 05:54:53;;;;;;;8.90;5.28;;;;;;;8.30;82.73;99931.38;4415223;32;20081;-76
2020/12/22 05:57:21;;;;;;;9.38;6.10;;;;;;;8.21;82.00;99931.19;4413111;32;20154;-76
2020/12/22 05:59:47;;;;;;;12.63;5.70;;;;;;;8.16;82.58;99946.53;4412221;32;20119;-76
2020/12/22 06:05:02;;;;;;;10.85;6.12;;;;;;;8.32;81.32;99972.97;3982962;32;15074672;-75
2020/12/22 06:07:28;;;;;;;10.43;6.07;;;;;;;8.32;81.32;99972.97;4435737;32;20065;-75
2020/12/22 06:09:55;;;;;;;9.80;5.45;;;;;;;7.75;82.25;99965.22;4438753;32;20122;-77
2020/12/22 06:12:21;;;;;;;10.30;5.87;;;;;;;7.60;82.19;99961.19;4434268;32;20462;-75
2020/12/22 06:14:50;;;;;;;9.07;5.65;;;;;;;7.50;81.55;99976.25;4438656;32;20073;-75
2020/12/22 06:17:17;;;;;;;12.52;6.12;;;;;;;7.52;82.79;99982.19;4434804;32;20065;-76
2020/12/22 06:19:44;;;;;;;9.07;5.28;;;;;;;7.54;83.18;99999.34;4437317;32;20073;-76
2020/12/22 06:22:12;;;;;;;10.88;6.05;;;;;;;7.53;83.23;99997.78;4434213;32;20022;-76
2020/12/22 06:24:39;;;;;;;9.07;5.32;;;;;;;7.55;83.53;100004.50;4437382;32;20037;-76
2020/12/22 06:27:08;;;;;;;8.50;4.80;;;;;;;7.47;82.14;100010.72;4436699;32;20073;-76
2020/12/22 06:29:35;;;;;;;11.27;5.20;;;;;;;7.46;81.05;100011.94;4435451;32;20077;-76
2020/12/22 06:32:23;;;;;;;10.60;5.30;;;;;;;7.52;82.12;100019.38;4434444;32;20048;-76
2020/12/22 06:34:50;;;;;;;14.68;4.68;;;;;;;7.51;80.62;100031.00;4421683;32;20046;-76
2020/12/22 06:37:20;;;;;;;8.43;4.57;;;;;;;7.49;80.69;100036.25;4416490;32;20445;-76
2020/12/22 06:39:47;;;;;;;6.87;4.20;;;;;;;7.51;78.83;100045.00;4421929;32;20048;-76
2020/12/22 06:47:59;;;;;;;6.37;3.30;;;;;;;7.82;74.95;100065.88;3979167;32;15028265;-75
2020/12/22 06:53:41;;;;;;;6.93;2.83;;;;;;;7.80;74.80;100079.53;3986180;32;15026589;-76
2020/12/22 06:56:06;;;;;;;5.37;2.50;;;;;;;7.80;74.80;100079.53;4437546;32;20022;-77
2020/12/22 07:01:33;;;;;;;7.18;3.00;;;;;;;7.42;75.90;100068.00;3984599;32;15022123;-76
2020/12/22 07:07:02;;;;;;;6.62;2.83;;;;;;;7.76;76.06;100101.22;3985774;32;15024778;-76
2020/12/22 07:12:11;;;;;;;8.05;2.30;;;;;;;7.71;75.10;100118.56;3984836;32;15024959;-74
2020/12/22 07:14:40;;;;;;;4.95;2.53;;;;;;;7.71;75.10;100118.56;4438900;32;20389;-75
2020/12/22 07:17:07;;;;;;;6.87;2.53;;;;;;;7.21;74.98;100121.59;4441513;32;20076;-74
2020/12/22 07:19:34;;;;;;;8.20;2.53;;;;;;;7.13;74.34;100133.38;4441265;32;20029;-75
2020/12/22 07:22:04;;;;;;;11.05;3.03;;;;;;;7.16;74.96;100138.91;4437902;32;20017;-74
2020/12/22 07:24:32;;;;;;;7.68;3.60;;;;;;;7.11;75.85;100142.22;4435077;32;20469;-74
2020/12/22 07:26:57;;;;;;;5.53;2.87;;;;;;;7.09;76.28;100132.66;4442243;32;20070;-74
2020/12/22 07:29:24;;;;;;;8.10;3.83;;;;;;;7.06;76.76;100145.50;4438275;32;20131;-75
2020/12/22 07:31:50;;;;;;;11.07;3.30;;;;;;;7.02;76.50;100152.37;4439606;32;20107;-74
2020/12/22 07:34:16;;;;;;;6.68;3.75;;;;;;;7.02;77.55;100155.16;4426559;32;20042;-75
2020/12/22 07:36:42;;;;;;;5.40;2.28;;;;;;;7.01;77.22;100150.81;4424169;32;20066;-75
2020/12/22 07:39:26;;;;;;;8.68;2.53;;;;;;;6.88;75.68;100149.84;4423054;32;20073;-75
2020/12/22 07:41:53;;;;;;;7.03;2.72;;;;;;;6.94;76.83;100164.94;4423250;32;20052;-76
2020/12/22 07:44:20;;;;;;;7.57;2.42;;;;;;;6.95;76.86;100160.91;4425583;32;20064;-76
2020/12/22 07:46:48;;;;;;;10.98;2.47;;;;;;;6.97;77.12;100159.25;4422905;32;20065;-76
2020/12/22 07:49:15;;;;;;;4.43;2.47;;;;;;;7.00;76.97;100163.22;4424547;32;20158;-76
2020/12/22 07:51:44;;;;;;;6.47;2.95;;;;;;;6.96;77.26;100156.91;4420372;32;20397;-75
2020/12/22 07:54:10;;;;;;;8.27;3.12;;;;;;;6.96;77.29;100149.28;4423550;32;20045;-75
2020/12/22 07:56:38;;;;;;;6.50;2.53;;;;;;;6.95;78.03;100158.09;4425855;32;20060;-75
2020/12/22 07:59:12;;;;;;;7.37;3.92;;;;;;;6.95;78.40;100163.69;4423899;32;20062;-76
2020/12/22 08:01:40;;;;;;;8.25;2.90;;;;;;;6.94;77.75;100173.31;4421482;32;20042;-75
2020/12/22 08:04:14;;;;;;;8.77;2.67;;;;;;;6.92;78.48;100182.13;4426760;32;20095;-76
2020/12/22 08:06:41;;;;;;;11.50;3.33;;;;;;;6.90;77.81;100178.19;4425098;32;20073;-76
2020/12/22 08:09:08;;;;;;;8.80;1.90;;;;;;;6.84;78.18;100183.47;4423141;32;20026;-76
2020/12/22 08:11:35;;;;;;;8.77;2.17;;;;;;;6.79;77.64;100180.38;4422527;32;20037;-76
2020/12/22 08:14:02;;;;;;;5.95;1.80;;;;;;;6.73;78.06;100185.69;4425318;32;21679;-76
2020/12/22 08:16:31;;;;;;;9.63;2.70;;;;;;;6.69;77.69;100195.34;4424471;32;20022;-75
2020/12/22 08:18:58;;;;;;;12.23;2.90;;;;;;;6.66;77.90;100185.00;4423476;32;20093;-76
2020/12/22 08:21:25;;;;;;;13.07;3.78;;;;;;;6.68;78.90;100196.53;4423008;32;20374;-75
2020/12/22 08:23:53;;;;;;;3.97;1.87;;;;;;;6.55;78.01;100189.97;4413491;32;20700;-76
2020/12/22 08:26:20;;;;;;;7.62;1.73;;;;;;;6.59;76.62;100197.09;4410865;32;21582;-75
2020/12/22 08:28:54;;;;;;;9.10;3.10;;;;;;;6.69;76.99;100198.16;4411062;32;20056;-75
2020/12/22 08:31:22;;;;;;;4.18;1.33;;;;;;;6.72;76.61;100214.84;4415684;32;20099;-77
2020/12/22 08:33:54;;;;;;;10.63;3.33;;;;;;;6.72;75.32;100205.69;4415422;32;20037;-76
2020/12/22 08:36:21;;;;;;;9.02;1.20;;;;;;;6.80;75.74;100207.91;4414008;32;20042;-75
2020/12/22 08:38:46;;;;;;;12.10;1.92;;;;;;;6.78;75.04;100207.53;4412014;32;20101;-75
2020/12/22 08:41:17;;;;;;;8.30;1.02;;;;;;;6.80;75.66;100207.91;4414563;32;20034;-76
2020/12/22 08:43:47;;;;;;;9.73;2.87;;;;;;;6.85;75.79;100212.25;4413181;32;20076;-76
2020/12/22 08:46:13;;;;;;;13.90;3.03;;;;;;;6.95;76.49;100223.25;4409472;32;20074;-76
2020/12/22 08:48:39;;;;;;;11.05;2.47;;;;;;;6.93;76.65;100224.91;4409475;32;20070;-76
2020/12/22 08:51:06;;;;;;;10.57;2.75;;;;;;;6.96;77.23;100229.63;4413502;32;20131;-75
2020/12/22 08:53:31;;;;;;;14.25;3.62;;;;;;;6.96;77.65;100229.63;4412296;32;20041;-77
2020/12/22 08:56:06;;;;;;;13.38;3.75;;;;;;;6.98;77.83;100238.38;4409776;32;20455;-77
2020/12/22 08:58:32;;;;;;;;;;;;;;;6.99;77.64;100239.94;4412319;32;20111;-77
2020/12/22 09:00:58;;;;;;;13.27;3.70;;;;;;;6.99;77.37;100259.53;4411339;32;19957;-77
2020/12/22 09:03:24;;;;;;;8.55;3.80;;;;;;;6.94;77.72;100260.84;4412095;32;20086;-77
2020/12/22 09:05:50;;;;;;;14.87;5.25;;;;;;;6.96;78.05;100263.19;4411141;32;20038;-76
2020/12/22 09:08:16;;;;;;;28.40;11.15;;;;;;;6.93;78.03;100262.03;4412615;32;20104;-76
2020/12/22 09:10:49;;;;;;;20.55;7.60;;;;;;;6.87;77.94;100260.94;4411774;32;20066;-76
2020/12/22 09:13:16;;;;;;;23.05;6.90;;;;;;;6.92;77.76;100266.06;4411534;32;20069;-76
2020/12/22 09:15:57;;;;;;;16.02;5.40;;;;;;;6.92;77.87;100268.03;4410576;32;20037;-76
2020/12/22 09:18:23;;;;;;;14.98;4.53;;;;;;;6.97;77.86;100261.97;4410848;32;20385;-76
2020/12/22 09:21:05;;;;;;;16.00;4.07;;;;;;;6.95;77.56;100261.59;4408998;32;20551;-75
2020/12/22 09:23:30;;;;;;;14.82;4.47;;;;;;;7.01;77.39;100268.28;4410819;32;20073;-76
2020/12/22 09:25:56;;;;;;;12.85;4.65;;;;;;;6.92;77.21;100268.03;4414123;32;20072;-76
2020/12/22 09:28:22;;;;;;;14.63;4.95;;;;;;;6.91;77.45;100264.47;4412758;32;20034;-76
2020/12/22 09:30:47;;;;;;;17.27;4.00;;;;;;;6.98;77.69;100269.16;4410138;32;20089;-77
2020/12/22 09:33:13;;;;;;;23.77;5.40;;;;;;;7.03;77.26;100274.25;4411928;32;20045;-76
2020/12/22 09:35:39;;;;;;;12.52;5.40;;;;;;;6.99;76.82;100265.13;4411866;32;20103;-76
2020/12/22 09:38:04;;;;;;;17.30;5.50;;;;;;;7.06;76.59;100268.59;4414396;32;20469;-76
2020/12/22 09:40:30;;;;;;;14.02;5.93;;;;;;;7.20;77.17;100275.94;4413628;32;20034;-77
2020/12/22 09:42:56;;;;;;;14.15;5.97;;;;;;;7.32;76.55;100280.94;4412228;32;20040;-76
2020/12/22 09:45:21;;;;;;;11.65;5.20;;;;;;;7.38;76.80;100280.03;4412401;32;20089;-75
2020/12/22 09:47:47;;;;;;;18.80;6.30;;;;;;;7.51;77.34;100280.16;4411781;32;20384;-75
2020/12/22 09:50:13;;;;;;;15.32;6.50;;;;;;;7.68;77.42;100281.84;4410052;32;20037;-76
2020/12/22 09:52:38;;;;;;;21.15;6.05;;;;;;;7.80;76.16;100284.78;4412283;32;20420;-76
2020/12/22 09:55:04;;;;;;;15.35;6.30;;;;;;;7.94;75.29;100286.50;4414047;32;20104;-76
2020/12/22 09:57:29;;;;;;;18.70;7.47;;;;;;;8.08;75.60;100291.81;4410641;32;20056;-76
2020/12/22 09:59:55;;;;;;;18.48;6.60;;;;;;;8.17;74.95;100294.84;4410343;32;20091;-76
2020/12/22 10:02:21;;;;;;;19.05;5.37;;;;;;;8.32;74.65;100298.94;4411173;32;20072;-76
2020/12/22 10:04:46;;;;;;;16.87;5.40;;;;;;;8.39;73.25;100295.97;4409650;32;20182;-76
2020/12/22 10:07:12;;;;;;;15.68;4.87;;;;;;;8.43;72.74;100301.53;4413873;32;20018;-76
2020/12/22 10:09:37;;;;;;;14.75;5.62;;;;;;;8.50;73.78;100304.94;4410166;32;20034;-76
2020/12/22 10:12:04;;;;;;;18.05;5.32;;;;;;;8.62;72.54;100312.66;4410601;32;20449;-76
2020/12/22 10:14:31;;;;;;;15.60;5.53;;;;;;;8.69;71.85;100306.13;4413291;32;20021;-77
2020/12/22 10:16:56;;;;;;;18.37;5.10;;;;;;;8.79;73.17;100317.09;4412789;32;20038;-76
2020/12/22 10:19:22;;;;;;;17.45;6.30;;;;;;;8.84;71.62;100312.97;4406997;32;20061;-76
2020/12/22 10:21:47;;;;;;;15.85;7.15;;;;;;;8.91;72.42;100324.03;4409147;32;20083;-76
2020/12/22 10:24:13;;;;;;;23.35;8.45;;;;;;;8.97;72.34;100327.88;4413100;32;20085;-76
2020/12/22 10:26:39;;;;;;;30.50;13.32;;;;;;;9.02;71.94;100335.78;4409369;32;20054;-76
2020/12/22 10:29:04;;;;;;;28.77;13.60;;;;;;;9.10;71.57;100354.03;4411558;32;20030;-76
2020/12/22 10:31:31;;;;;;;16.50;7.37;;;;;;;9.11;71.42;100347.97;4412439;32;20107;-75
2020/12/22 10:33:57;;;;;;;11.23;5.50;;;;;;;9.10;71.49;100352.00;4410562;32;20118;-76
2020/12/22 10:36:24;;;;;;;16.08;6.45;;;;;;;9.11;70.17;100364.81;4413415;32;20092;-75
2020/12/22 10:38:51;;;;;;;24.73;7.03;;;;;;;9.21;71.19;100355.34;4411073;32;20042;-76
2020/12/22 10:41:17;;;;;;;19.73;7.03;;;;;;;9.23;71.41;100352.87;4409692;32;20062;-75
2020/12/22 10:43:43;;;;;;;26.08;7.60;;;;;;;9.18;70.86;100364.62;4411040;32;20034;-75
2020/12/22 10:46:09;;;;;;;21.35;6.53;;;;;;;9.21;70.92;100355.34;4414980;32;20045;-76
2020/12/22 10:48:34;;;;;;;16.35;6.00;;;;;;;9.29;70.99;100355.94;4410919;32;20034;-76
2020/12/22 10:51:00;;;;;;;13.85;5.00;;;;;;;9.31;70.15;100361.94;4411537;32;20097;-76
2020/12/22 10:53:26;;;;;;;13.52;6.30;;;;;;;9.32;70.75;100357.88;4405770;32;20029;-76
2020/12/22 10:55:53;;;;;;;14.70;5.25;;;;;;;9.31;70.26;100365.53;4412783;32;20081;-76
2020/12/22 10:58:19;;;;;;;17.77;4.82;;;;;;;9.11;69.96;100376.03;4408071;32;20101;-76
2020/12/22 11:00:47;;;;;;;15.65;3.58;;;;;;;9.30;70.16;100380.78;4411313;32;20508;-75
2020/12/22 11:03:16;;;;;;;15.48;4.15;;;;;;;9.55;69.25;100380.19;4410383;32;20084;-76
2020/12/22 11:08:27;;;;;;;23.20;5.75;;;;;;;9.49;69.35;100385.53;4411794;32;20077;-76
2020/12/22 11:10:53;;;;;;;13.23;6.10;;;;;;;9.38;68.82;100398.25;4411085;32;20089;-75
2020/12/22 11:13:19;;;;;;;13.45;3.87;;;;;;;9.51;69.35;100385.87;4412082;32;20080;-75
2020/12/22 11:15:44;;;;;;;23.10;4.25;;;;;;;9.47;67.35;100373.16;4412353;32;20108;-76
2020/12/22 11:18:10;;;;;;;11.38;4.07;;;;;;;9.50;67.66;100369.47;4410780;32;20045;-77
2020/12/22 11:20:36;;;;;;;12.35;2.97;;;;;;;9.48;67.75;100375.53;4411067;32;20038;-75
2020/12/22 11:23:02;;;;;;;13.60;2.72;;;;;;;9.37;67.31;100366.59;4413862;32;20386;-76
2020/12/22 11:25:28;;;;;;;9.70;2.85;;;;;;;9.34;67.30;100381.50;4411748;32;20041;-76
2020/12/22 11:27:54;;;;;;;11.50;2.67;;;;;;;8.99;67.85;100387.94;4408943;32;20455;-75
2020/12/22 11:30:20;;;;;;;15.85;2.83;;;;;;;8.88;69.36;100392.25;4408444;32;20038;-76
2020/12/22 11:32:46;;;;;;;18.98;3.90;;;;;;;9.10;69.25;100387.72;4411667;32;20022;-76
2020/12/22 11:35:12;;;;;;;21.08;5.22;;;;;;;9.30;69.33;100391.25;4409921;32;20029;-75
2020/12/22 11:37:38;;;;;;;10.27;3.70;;;;;;;9.46;69.09;100380.81;4411745;32;20521;-75
2020/12/22 11:40:05;;;;;;;13.05;4.03;;;;;;;9.35;67.72;100369.03;4410353;32;20481;-76
2020/12/22 11:42:31;;;;;;;12.50;4.00;;;;;;;9.55;68.18;100364.09;4411313;32;20136;-76
2020/12/22 11:44:57;;;;;;;15.27;3.67;;;;;;;9.69;67.20;100366.53;4410401;32;20073;-76
2020/12/22 11:47:22;;;;;;;9.68;4.32;;;;;;;9.73;66.99;100364.41;4411640;32;20121;-76
2020/12/22 11:49:48;;;;;;;14.43;5.07;;;;;;;9.86;67.19;100361.69;4406707;32;20192;-77
2020/12/22 11:52:14;;;;;;;19.60;4.47;;;;;;;9.99;67.00;100374.56;4410292;32;20034;-75
2020/12/22 11:54:39;;;;;;;15.45;4.47;;;;;;;10.04;66.54;100382.44;4411532;32;20022;-76